sensor_id;sensor_type;location;lat;lon;timestamp;pressure;altitude;pressure_sealevel;temperature;humidity
34197;BME280;36594;45.192;5.722;2023-04-21T00:02:03;98560.55;;;24.54;37.39
34197;BME280;36594;45.192;5.722;2023-04-21T00:04:53;98551.77;;;24.52;37.47
34197;BME280;36594;45.192;5.722;2023-04-21T00:07:42;98549.56;;;24.54;37.50
34197;BME280;36594;45.192;5.722;2023-04-21T00:10:31;98533.91;;;24.52;37.57
34197;BME280;36594;45.192;5.722;2023-04-21T00:13:19;98537.46;;;24.53;37.57
34197;BME280;36594;45.192;5.722;2023-04-21T00:16:07;98527.05;;;24.52;37.66
34197;BME280;36594;45.192;5.722;2023-04-21T00:18:55;98522.94;;;24.52;37.66
34197;BME280;36594;45.192;5.722;2023-04-21T00:21:44;98511.40;;;24.50;37.78
34197;BME280;36594;45.192;5.722;2023-04-21T00:24:33;98509.75;;;24.52;37.79
34197;BME280;36594;45.192;5.722;2023-04-21T00:27:21;98501.48;;;24.44;37.83
34197;BME280;36594;45.192;5.722;2023-04-21T00:30:10;98507.28;;;24.50;37.84
34197;BME280;36594;45.192;5.722;2023-04-21T00:32:58;98511.38;;;24.53;37.95
34197;BME280;36594;45.192;5.722;2023-04-21T00:35:48;98506.72;;;24.53;37.95
34197;BME280;36594;45.192;5.722;2023-04-21T00:38:37;98503.97;;;24.53;37.92
34197;BME280;36594;45.192;5.722;2023-04-21T00:41:28;98504.25;;;24.52;37.96
34197;BME280;36594;45.192;5.722;2023-04-21T00:44:16;98506.17;;;24.51;37.98
34197;BME280;36594;45.192;5.722;2023-04-21T00:47:05;98514.70;;;24.52;38.11
34197;BME280;36594;45.192;5.722;2023-04-21T00:49:53;98512.21;;;24.53;38.10
34197;BME280;36594;45.192;5.722;2023-04-21T00:52:42;98503.42;;;24.51;38.07
34197;BME280;36594;45.192;5.722;2023-04-21T00:55:33;98508.91;;;24.51;38.14
34197;BME280;36594;45.192;5.722;2023-04-21T00:58:22;98512.75;;;24.53;38.13
34197;BME280;36594;45.192;5.722;2023-04-21T01:01:11;98503.42;;;24.51;38.12
34197;BME280;36594;45.192;5.722;2023-04-21T01:04:03;98509.45;;;24.51;38.15
34197;BME280;36594;45.192;5.722;2023-04-21T01:06:52;98504.80;;;24.51;38.21
34197;BME280;36594;45.192;5.722;2023-04-21T01:09:40;98502.88;;;24.52;38.22
34197;BME280;36594;45.192;5.722;2023-04-21T01:12:29;98519.07;;;24.53;38.20
34197;BME280;36594;45.192;5.722;2023-04-21T01:15:18;98522.36;;;24.53;38.23
34197;BME280;36594;45.192;5.722;2023-04-21T01:18:07;98516.89;;;24.50;38.27
34197;BME280;36594;45.192;5.722;2023-04-21T01:20:55;98514.41;;;24.51;38.27
34197;BME280;36594;45.192;5.722;2023-04-21T01:23:45;98525.68;;;24.52;38.29
34197;BME280;36594;45.192;5.722;2023-04-21T01:26:33;98529.50;;;24.51;38.31
34197;BME280;36594;45.192;5.722;2023-04-21T01:29:22;98527.05;;;24.50;38.34
34197;BME280;36594;45.192;5.722;2023-04-21T01:32:14;98513.86;;;24.49;38.35
34197;BME280;36594;45.192;5.722;2023-04-21T01:35:02;98517.98;;;24.52;38.34
34197;BME280;36594;45.192;5.722;2023-04-21T01:37:50;98515.23;;;24.52;38.39
34197;BME280;36594;45.192;5.722;2023-04-21T01:40:39;98510.00;;;24.53;38.32
34197;BME280;36594;45.192;5.722;2023-04-21T01:43:29;98500.42;;;24.50;38.36
34197;BME280;36594;45.192;5.722;2023-04-21T01:46:21;98491.62;;;24.53;38.37
34197;BME280;36594;45.192;5.722;2023-04-21T01:49:09;98487.24;;;24.52;38.42
34197;BME280;36594;45.192;5.722;2023-04-21T01:51:57;98482.83;;;24.51;38.43
34197;BME280;36594;45.192;5.722;2023-04-21T01:54:46;98491.36;;;24.52;38.42
34197;BME280;36594;45.192;5.722;2023-04-21T01:57:34;98486.41;;;24.52;38.45
34197;BME280;36594;45.192;5.722;2023-04-21T02:00:23;98493.55;;;24.50;38.51
34197;BME280;36594;45.192;5.722;2023-04-21T02:03:12;98497.92;;;24.49;38.52
34197;BME280;36594;45.192;5.722;2023-04-21T02:06:00;98497.10;;;24.51;38.50
34197;BME280;36594;45.192;5.722;2023-04-21T02:08:49;98513.58;;;24.51;38.49
34197;BME280;36594;45.192;5.722;2023-04-21T02:11:37;98507.28;;;24.50;38.49
34197;BME280;36594;45.192;5.722;2023-04-21T02:14:25;98498.22;;;24.52;38.52
34197;BME280;36594;45.192;5.722;2023-04-21T02:17:14;98502.34;;;24.52;38.48
34197;BME280;36594;45.192;5.722;2023-04-21T02:20:05;98492.44;;;24.51;38.52
34197;BME280;36594;45.192;5.722;2023-04-21T02:22:53;98499.05;;;24.50;38.53
34197;BME280;36594;45.192;5.722;2023-04-21T02:25:41;98497.39;;;24.52;38.49
34197;BME280;36594;45.192;5.722;2023-04-21T02:28:32;98490.81;;;24.50;38.55
34197;BME280;36594;45.192;5.722;2023-04-21T02:31:20;98499.59;;;24.52;38.55
34197;BME280;36594;45.192;5.722;2023-04-21T02:34:09;98500.13;;;24.49;38.54
34197;BME280;36594;45.192;5.722;2023-04-21T02:36:58;98499.02;;;24.53;38.48
34197;BME280;36594;45.192;5.722;2023-04-21T02:39:46;98487.78;;;24.52;38.52
34197;BME280;36594;45.192;5.722;2023-04-21T02:42:35;98492.72;;;24.50;38.54
34197;BME280;36594;45.192;5.722;2023-04-21T02:45:23;98489.98;;;24.50;38.53
34197;BME280;36594;45.192;5.722;2023-04-21T02:48:11;98485.58;;;24.51;38.55
34197;BME280;36594;45.192;5.722;2023-04-21T02:51:00;98493.81;;;24.51;38.57
34197;BME280;36594;45.192;5.722;2023-04-21T02:53:49;98486.12;;;24.51;38.54
34197;BME280;36594;45.192;5.722;2023-04-21T02:56:37;98477.34;;;24.51;38.53
34197;BME280;36594;45.192;5.722;2023-04-21T02:59:26;98469.39;;;24.50;38.63
34197;BME280;36594;45.192;5.722;2023-04-21T03:02:14;98475.97;;;24.51;38.50
34197;BME280;36594;45.192;5.722;2023-04-21T03:05:03;98476.80;;;24.52;38.55
34197;BME280;36594;45.192;5.722;2023-04-21T03:07:52;98470.77;;;24.50;38.56
34197;BME280;36594;45.192;5.722;2023-04-21T03:10:41;98461.14;;;24.47;38.60
34197;BME280;36594;45.192;5.722;2023-04-21T03:13:29;98474.34;;;24.50;38.57
34197;BME280;36594;45.192;5.722;2023-04-21T03:16:18;98469.64;;;24.48;38.63
34197;BME280;36594;45.192;5.722;2023-04-21T03:19:06;98465.81;;;24.49;38.57
34197;BME280;36594;45.192;5.722;2023-04-21T03:21:55;98462.52;;;24.47;38.57
34197;BME280;36594;45.192;5.722;2023-04-21T03:24:43;98467.17;;;24.47;38.61
34197;BME280;36594;45.192;5.722;2023-04-21T03:27:32;98468.27;;;24.48;38.59
34197;BME280;36594;45.192;5.722;2023-04-21T03:30:22;98454.53;;;24.46;38.66
34197;BME280;36594;45.192;5.722;2023-04-21T03:33:12;98452.91;;;24.47;38.64
34197;BME280;36594;45.192;5.722;2023-04-21T03:36:01;98458.40;;;24.47;38.62
34197;BME280;36594;45.192;5.722;2023-04-21T03:38:49;98463.89;;;24.47;38.61
34197;BME280;36594;45.192;5.722;2023-04-21T03:41:38;98478.44;;;24.45;38.64
34197;BME280;36594;45.192;5.722;2023-04-21T03:44:27;98478.15;;;24.44;38.64
34197;BME280;36594;45.192;5.722;2023-04-21T03:47:16;98479.81;;;24.45;38.65
34197;BME280;36594;45.192;5.722;2023-04-21T03:50:06;98478.44;;;24.45;38.64
34197;BME280;36594;45.192;5.722;2023-04-21T03:52:54;98474.03;;;24.44;38.65
34197;BME280;36594;45.192;5.722;2023-04-21T03:55:43;98483.36;;;24.46;38.63
34197;BME280;36594;45.192;5.722;2023-04-21T03:58:33;98484.46;;;24.42;38.67
34197;BME280;36594;45.192;5.722;2023-04-21T04:01:22;98501.77;;;24.45;38.67
34197;BME280;36594;45.192;5.722;2023-04-21T04:04:10;98491.87;;;24.44;38.63
34197;BME280;36594;45.192;5.722;2023-04-21T04:06:58;98485.55;;;24.44;38.66
34197;BME280;36594;45.192;5.722;2023-04-21T04:09:47;98489.95;;;24.42;38.68
34197;BME280;36594;45.192;5.722;2023-04-21T04:12:35;98495.99;;;24.44;38.64
34197;BME280;36594;45.192;5.722;2023-04-21T04:15:23;98494.91;;;24.43;38.64
34197;BME280;36594;45.192;5.722;2023-04-21T04:18:12;98505.05;;;24.42;38.69
34197;BME280;36594;45.192;5.722;2023-04-21T04:21:07;98503.14;;;24.43;38.67
34197;BME280;36594;45.192;5.722;2023-04-21T04:23:55;98492.70;;;24.42;38.65
34197;BME280;36594;45.192;5.722;2023-04-21T04:26:44;98501.75;;;24.40;38.71
34197;BME280;36594;45.192;5.722;2023-04-21T04:29:32;98496.80;;;24.40;38.74
34197;BME280;36594;45.192;5.722;2023-04-21T04:32:21;98489.41;;;24.40;38.71
34197;BME280;36594;45.192;5.722;2023-04-21T04:35:09;98493.23;;;24.39;38.78
34197;BME280;36594;45.192;5.722;2023-04-21T04:37:59;98493.52;;;24.40;38.74
34197;BME280;36594;45.192;5.722;2023-04-21T04:40:54;98478.96;;;24.40;38.74
34197;BME280;36594;45.192;5.722;2023-04-21T04:43:48;98471.02;;;24.38;38.71
34197;BME280;36594;45.192;5.722;2023-04-21T04:46:37;98468.52;;;24.37;38.77
34197;BME280;36594;45.192;5.722;2023-04-21T04:49:26;98476.20;;;24.37;38.80
34197;BME280;36594;45.192;5.722;2023-04-21T04:52:14;98475.38;;;24.37;38.79
34197;BME280;36594;45.192;5.722;2023-04-21T04:55:02;98483.61;;;24.37;38.80
34197;BME280;36594;45.192;5.722;2023-04-21T04:57:50;98476.20;;;24.37;38.81
34197;BME280;36594;45.192;5.722;2023-04-21T05:00:39;98484.99;;;24.39;38.80
34197;BME280;36594;45.192;5.722;2023-04-21T05:03:27;98495.97;;;24.39;38.80
34197;BME280;36594;45.192;5.722;2023-04-21T05:06:15;98493.23;;;24.39;38.78
34197;BME280;36594;45.192;5.722;2023-04-21T05:09:04;98498.72;;;24.39;38.77
34197;BME280;36594;45.192;5.722;2023-04-21T05:11:52;98508.06;;;24.38;38.73
34197;BME280;36594;45.192;5.722;2023-04-21T05:14:41;98521.50;;;24.37;38.48
34197;BME280;36594;45.192;5.722;2023-04-21T05:17:29;98522.86;;;24.35;38.47
34197;BME280;36594;45.192;5.722;2023-04-21T05:20:18;98525.33;;;24.31;37.91
34197;BME280;36594;45.192;5.722;2023-04-21T05:23:07;98531.08;;;24.32;37.91
34197;BME280;36594;45.192;5.722;2023-04-21T05:25:56;98522.86;;;24.35;37.82
34197;BME280;36594;45.192;5.722;2023-04-21T05:28:44;98522.84;;;24.32;37.87
34197;BME280;36594;45.192;5.722;2023-04-21T05:31:32;98522.59;;;24.31;37.96
34197;BME280;36594;45.192;5.722;2023-04-21T05:34:21;98516.56;;;24.32;38.04
34197;BME280;36594;45.192;5.722;2023-04-21T05:37:10;98521.48;;;24.32;38.14
34197;BME280;36594;45.192;5.722;2023-04-21T05:39:58;98513.53;;;24.33;38.14
34197;BME280;36594;45.192;5.722;2023-04-21T05:42:47;98516.54;;;24.34;38.13
34197;BME280;36594;45.192;5.722;2023-04-21T05:45:40;98506.94;;;24.34;38.08
34197;BME280;36594;45.192;5.722;2023-04-21T05:48:28;98507.52;;;24.36;38.10
34197;BME280;36594;45.192;5.722;2023-04-21T05:51:17;98509.97;;;24.35;38.04
34197;BME280;36594;45.192;5.722;2023-04-21T05:54:05;98515.46;;;24.35;37.99
34197;BME280;36594;45.192;5.722;2023-04-21T05:56:54;98513.00;;;24.36;38.01
34197;BME280;36594;45.192;5.722;2023-04-21T05:59:43;98511.88;;;24.35;37.92
34197;BME280;36594;45.192;5.722;2023-04-21T06:02:31;98506.39;;;24.35;37.96
34197;BME280;36594;45.192;5.722;2023-04-21T06:05:20;98514.64;;;24.37;37.94
34197;BME280;36594;45.192;5.722;2023-04-21T06:08:08;98517.66;;;24.36;37.94
34197;BME280;36594;45.192;5.722;2023-04-21T06:10:57;98516.01;;;24.37;37.93
34197;BME280;36594;45.192;5.722;2023-04-21T06:13:46;98517.92;;;24.37;37.91
34197;BME280;36594;45.192;5.722;2023-04-21T06:16:34;98515.17;;;24.37;37.91
34197;BME280;36594;45.192;5.722;2023-04-21T06:19:23;98509.97;;;24.35;37.90
34197;BME280;36594;45.192;5.722;2023-04-21T06:22:11;98503.66;;;24.37;37.88
34197;BME280;36594;45.192;5.722;2023-04-21T06:25:00;98504.20;;;24.37;37.88
34197;BME280;36594;45.192;5.722;2023-04-21T06:27:48;98495.16;;;24.36;37.84
34197;BME280;36594;45.192;5.722;2023-04-21T06:30:37;98490.77;;;24.38;37.82
34197;BME280;36594;45.192;5.722;2023-04-21T06:33:26;98497.09;;;24.38;37.87
34197;BME280;36594;45.192;5.722;2023-04-21T06:36:16;98505.32;;;24.38;37.83
34197;BME280;36594;45.192;5.722;2023-04-21T06:39:04;98492.39;;;24.39;37.83
34197;BME280;36594;45.192;5.722;2023-04-21T06:41:52;98489.93;;;24.37;37.80
34197;BME280;36594;45.192;5.722;2023-04-21T06:44:42;98484.73;;;24.38;37.82
34197;BME280;36594;45.192;5.722;2023-04-21T06:47:31;98487.48;;;24.38;37.79
34197;BME280;36594;45.192;5.722;2023-04-21T06:50:19;98484.73;;;24.38;37.78
34197;BME280;36594;45.192;5.722;2023-04-21T06:53:09;98480.62;;;24.41;37.78
34197;BME280;36594;45.192;5.722;2023-04-21T06:55:58;98488.03;;;24.40;37.74
34197;BME280;36594;45.192;5.722;2023-04-21T06:58:46;98488.28;;;24.39;37.75
34197;BME280;36594;45.192;5.722;2023-04-21T07:01:34;98470.98;;;24.31;37.73
34197;BME280;36594;45.192;5.722;2023-04-21T07:04:23;98485.55;;;24.41;37.69
34197;BME280;36594;45.192;5.722;2023-04-21T07:07:13;98475.94;;;24.41;37.69
34197;BME280;36594;45.192;5.722;2023-04-21T07:10:01;98478.42;;;24.40;37.69
34197;BME280;36594;45.192;5.722;2023-04-21T07:12:50;98483.91;;;24.40;37.68
34197;BME280;36594;45.192;5.722;2023-04-21T07:15:38;98492.98;;;24.41;37.71
34197;BME280;36594;45.192;5.722;2023-04-21T07:18:27;98486.66;;;24.40;37.73
34197;BME280;36594;45.192;5.722;2023-04-21T07:21:15;98488.03;;;24.40;37.70
34197;BME280;36594;45.192;5.722;2023-04-21T07:24:04;98490.77;;;24.40;37.75
34197;BME280;36594;45.192;5.722;2023-04-21T07:26:53;98493.78;;;24.41;37.68
34197;BME280;36594;45.192;5.722;2023-04-21T07:29:41;98487.20;;;24.42;37.72
34197;BME280;36594;45.192;5.722;2023-04-21T07:32:29;98490.24;;;24.43;37.67
34197;BME280;36594;45.192;5.722;2023-04-21T07:35:18;98483.64;;;24.44;37.74
34197;BME280;36594;45.192;5.722;2023-04-21T07:38:07;98486.92;;;24.44;37.76
34197;BME280;36594;45.192;5.722;2023-04-21T07:40:56;98481.72;;;24.45;37.72
34197;BME280;36594;45.192;5.722;2023-04-21T07:43:43;98482.56;;;24.45;37.72
34197;BME280;36594;45.192;5.722;2023-04-21T07:46:32;98489.14;;;24.47;37.74
34197;BME280;36594;45.192;5.722;2023-04-21T07:49:20;98487.77;;;24.47;37.71
34197;BME280;36594;45.192;5.722;2023-04-21T07:52:08;98490.80;;;24.45;37.79
34197;BME280;36594;45.192;5.722;2023-04-21T07:54:57;98492.42;;;24.46;37.72
34197;BME280;36594;45.192;5.722;2023-04-21T07:57:45;98476.25;;;24.47;37.73
34197;BME280;36594;45.192;5.722;2023-04-21T08:00:34;98482.56;;;24.48;37.74
34197;BME280;36594;45.192;5.722;2023-04-21T08:03:22;98482.58;;;24.50;37.67
34197;BME280;36594;45.192;5.722;2023-04-21T08:06:10;98479.83;;;24.50;37.70
34197;BME280;36594;45.192;5.722;2023-04-21T08:08:58;98477.65;;;24.57;37.51
34197;BME280;36594;45.192;5.722;2023-04-21T08:11:47;98479.00;;;24.62;37.44
34197;BME280;36594;45.192;5.722;2023-04-21T08:14:36;98478.20;;;24.59;37.57
34197;BME280;36594;45.192;5.722;2023-04-21T08:17:24;98487.80;;;24.59;37.51
34197;BME280;36594;45.192;5.722;2023-04-21T08:20:12;98484.78;;;24.63;37.46
34197;BME280;36594;45.192;5.722;2023-04-21T08:23:01;98479.55;;;24.64;37.40
34197;BME280;36594;45.192;5.722;2023-04-21T08:25:50;98479.58;;;24.62;37.36
34197;BME280;36594;45.192;5.722;2023-04-21T08:28:38;98471.88;;;24.64;37.41
34197;BME280;36594;45.192;5.722;2023-04-21T08:31:26;98468.30;;;24.61;37.43
34197;BME280;36594;45.192;5.722;2023-04-21T08:34:15;98474.88;;;24.62;37.43
34197;BME280;36594;45.192;5.722;2023-04-21T08:37:03;98465.00;;;24.56;37.40
34197;BME280;36594;45.192;5.722;2023-04-21T08:39:52;98473.27;;;24.66;37.38
34197;BME280;36594;45.192;5.722;2023-04-21T08:42:40;98477.09;;;24.65;37.32
34197;BME280;36594;45.192;5.722;2023-04-21T08:45:29;98482.04;;;24.63;37.36
34197;BME280;36594;45.192;5.722;2023-04-21T08:48:19;98486.41;;;24.64;37.35
34197;BME280;36594;45.192;5.722;2023-04-21T08:51:10;98486.98;;;24.64;37.38
34197;BME280;36594;45.192;5.722;2023-04-21T08:53:58;98487.25;;;24.65;37.33
34197;BME280;36594;45.192;5.722;2023-04-21T08:56:48;98487.25;;;24.65;37.32
34197;BME280;36594;45.192;5.722;2023-04-21T08:59:36;98490.28;;;24.66;37.28
34197;BME280;36594;45.192;5.722;2023-04-21T09:02:25;98481.49;;;24.64;37.29
34197;BME280;36594;45.192;5.722;2023-04-21T09:05:20;98483.95;;;24.63;37.32
34197;BME280;36594;45.192;5.722;2023-04-21T09:08:12;98480.92;;;24.64;37.30
34197;BME280;36594;45.192;5.722;2023-04-21T09:11:00;98480.95;;;24.62;37.28
34197;BME280;36594;45.192;5.722;2023-04-21T09:13:49;98488.90;;;24.63;37.32
34197;BME280;36594;45.192;5.722;2023-04-21T09:16:38;98496.02;;;24.64;37.30
34197;BME280;36594;45.192;5.722;2023-04-21T09:19:27;98494.66;;;24.64;37.26
34197;BME280;36594;45.192;5.722;2023-04-21T09:22:17;98491.36;;;24.62;37.28
34197;BME280;36594;45.192;5.722;2023-04-21T09:25:06;98501.26;;;24.63;37.26
34197;BME280;36594;45.192;5.722;2023-04-21T09:27:54;98496.31;;;24.63;37.22
34197;BME280;36594;45.192;5.722;2023-04-21T09:30:43;98496.59;;;24.64;37.22
34197;BME280;36594;45.192;5.722;2023-04-21T09:33:32;98497.14;;;24.63;37.23
34197;BME280;36594;45.192;5.722;2023-04-21T09:36:23;98503.18;;;24.65;37.21
34197;BME280;36594;45.192;5.722;2023-04-21T09:39:12;98506.22;;;24.66;37.14
34197;BME280;36594;45.192;5.722;2023-04-21T09:42:00;98506.77;;;24.68;37.11
34197;BME280;36594;45.192;5.722;2023-04-21T09:44:49;98500.16;;;24.59;37.37
34197;BME280;36594;45.192;5.722;2023-04-21T09:47:41;98495.76;;;24.61;37.26
34197;BME280;36594;45.192;5.722;2023-04-21T09:50:30;98495.48;;;24.65;37.18
34197;BME280;36594;45.192;5.722;2023-04-21T09:53:21;98502.10;;;24.69;37.18
34197;BME280;36594;45.192;5.722;2023-04-21T09:56:15;98500.45;;;24.70;37.17
34197;BME280;36594;45.192;5.722;2023-04-21T09:59:05;98494.41;;;24.68;37.17
34197;BME280;36594;45.192;5.722;2023-04-21T10:01:54;98495.23;;;24.66;37.28
34197;BME280;36594;45.192;5.722;2023-04-21T10:04:44;98488.91;;;24.68;37.16
34197;BME280;36594;45.192;5.722;2023-04-21T10:07:33;98487.25;;;24.67;37.17
34197;BME280;36594;45.192;5.722;2023-04-21T10:10:29;98482.59;;;24.65;37.33
34197;BME280;36594;45.192;5.722;2023-04-21T10:13:18;98471.31;;;24.64;37.36
34197;BME280;36594;45.192;5.722;2023-04-21T10:16:08;98483.41;;;24.63;37.37
34197;BME280;36594;45.192;5.722;2023-04-21T10:18:57;98481.21;;;24.65;37.44
34197;BME280;36594;45.192;5.722;2023-04-21T10:21:45;98471.05;;;24.63;37.42
34197;BME280;36594;45.192;5.722;2023-04-21T10:24:39;98475.17;;;24.63;37.52
34197;BME280;36594;45.192;5.722;2023-04-21T10:27:36;98470.23;;;24.65;37.53
34197;BME280;36594;45.192;5.722;2023-04-21T10:30:25;98464.45;;;24.64;37.62
34197;BME280;36594;45.192;5.722;2023-04-21T10:33:16;98460.62;;;24.65;37.84
34197;BME280;36594;45.192;5.722;2023-04-21T10:36:05;98455.41;;;24.64;37.90
34197;BME280;36594;45.192;5.722;2023-04-21T10:38:55;98459.52;;;24.64;38.00
34197;BME280;36594;45.192;5.722;2023-04-21T10:41:45;98458.95;;;24.64;38.07
34197;BME280;36594;45.192;5.722;2023-04-21T10:44:33;98455.12;;;24.63;38.03
34197;BME280;36594;45.192;5.722;2023-04-21T10:47:43;98445.80;;;24.69;38.04
34197;BME280;36594;45.192;5.722;2023-04-21T10:50:31;98451.02;;;24.68;37.88
34197;BME280;36594;45.192;5.722;2023-04-21T10:53:22;98448.55;;;24.69;37.87
34197;BME280;36594;45.192;5.722;2023-04-21T10:56:11;98460.91;;;24.69;37.84
34197;BME280;36594;45.192;5.722;2023-04-21T10:59:00;98448.80;;;24.67;37.79
34197;BME280;36594;45.192;5.722;2023-04-21T11:01:49;98445.23;;;24.72;37.71
34197;BME280;36594;45.192;5.722;2023-04-21T11:04:37;98449.90;;;24.71;37.69
34197;BME280;36594;45.192;5.722;2023-04-21T11:07:29;98442.23;;;24.73;37.59
34197;BME280;36594;45.192;5.722;2023-04-21T11:10:19;98444.70;;;24.75;37.56
34197;BME280;36594;45.192;5.722;2023-04-21T11:13:07;98447.19;;;24.77;37.60
34197;BME280;36594;45.192;5.722;2023-04-21T11:15:57;98443.91;;;24.77;37.56
34197;BME280;36594;45.192;5.722;2023-04-21T11:18:46;98438.13;;;24.79;37.45
34197;BME280;36594;45.192;5.722;2023-04-21T11:21:34;98436.21;;;24.79;37.38
34197;BME280;36594;45.192;5.722;2023-04-21T11:24:23;98430.72;;;24.82;37.38
34197;BME280;36594;45.192;5.722;2023-04-21T11:27:11;98436.21;;;24.82;37.41
34197;BME280;36594;45.192;5.722;2023-04-21T11:30:03;98435.38;;;24.84;37.31
34197;BME280;36594;45.192;5.722;2023-04-21T11:32:54;98422.77;;;24.83;37.32
34197;BME280;36594;45.192;5.722;2023-04-21T11:35:43;98421.39;;;24.83;37.27
34197;BME280;36594;45.192;5.722;2023-04-21T11:38:39;98416.98;;;24.82;37.31
34197;BME280;36594;45.192;5.722;2023-04-21T11:41:28;98407.92;;;24.84;37.26
34197;BME280;36594;45.192;5.722;2023-04-21T11:44:34;98406.55;;;24.84;37.20
34197;BME280;36594;45.192;5.722;2023-04-21T11:47:25;98407.37;;;24.87;37.16
34197;BME280;36594;45.192;5.722;2023-04-21T11:50:38;98415.36;;;24.83;37.14
34197;BME280;36594;45.192;5.722;2023-04-21T11:53:06;98412.61;;;24.83;37.16
34197;BME280;36594;45.192;5.722;2023-04-21T11:55:54;98414.23;;;24.84;37.19
34197;BME280;36594;45.192;5.722;2023-04-21T11:58:43;98392.52;;;24.75;37.14
34197;BME280;36594;45.192;5.722;2023-04-21T12:01:32;98407.12;;;24.83;37.13
34197;BME280;36594;45.192;5.722;2023-04-21T12:04:22;98405.45;;;24.85;37.15
34197;BME280;36594;45.192;5.722;2023-04-21T12:07:10;98409.84;;;24.88;37.05
34197;BME280;36594;45.192;5.722;2023-04-21T12:10:00;98406.55;;;24.89;37.07
34197;BME280;36594;45.192;5.722;2023-04-21T12:12:49;98401.34;;;24.87;37.06
34197;BME280;36594;45.192;5.722;2023-04-21T12:15:38;98408.75;;;24.87;37.12
34197;BME280;36594;45.192;5.722;2023-04-21T12:18:27;98406.83;;;24.90;37.03
34197;BME280;36594;45.192;5.722;2023-04-21T12:21:15;98406.55;;;24.89;37.06
34197;BME280;36594;45.192;5.722;2023-04-21T12:24:04;98410.13;;;24.89;37.05
34197;BME280;36594;45.192;5.722;2023-04-21T12:26:53;98407.37;;;24.89;37.02
34197;BME280;36594;45.192;5.722;2023-04-21T12:29:42;98412.04;;;24.89;36.93
34197;BME280;36594;45.192;5.722;2023-04-21T12:32:30;98414.50;;;24.90;36.99
34197;BME280;36594;45.192;5.722;2023-04-21T12:35:18;98414.50;;;24.90;36.94
34197;BME280;36594;45.192;5.722;2023-04-21T12:38:06;98413.95;;;24.91;36.88
34197;BME280;36594;45.192;5.722;2023-04-21T12:40:55;98411.50;;;24.92;36.93
34197;BME280;36594;45.192;5.722;2023-04-21T12:43:43;98402.17;;;24.83;37.17
34197;BME280;36594;45.192;5.722;2023-04-21T12:46:32;98412.03;;;24.86;37.08
34197;BME280;36594;45.192;5.722;2023-04-21T12:49:20;98416.70;;;24.91;36.96
34197;BME280;36594;45.192;5.722;2023-04-21T12:52:09;98417.27;;;24.85;36.93
34197;BME280;36594;45.192;5.722;2023-04-21T12:54:57;98404.58;;;24.49;31.76
34197;BME280;36594;45.192;5.722;2023-04-21T12:57:46;98405.14;;;24.41;30.35
34197;BME280;36594;45.192;5.722;2023-04-21T13:00:34;98399.91;;;24.39;28.94
34197;BME280;36594;45.192;5.722;2023-04-21T13:03:23;98394.16;;;24.41;28.55
34197;BME280;36594;45.192;5.722;2023-04-21T13:06:12;98392.23;;;24.36;27.95
34197;BME280;36594;45.192;5.722;2023-04-21T13:09:00;98391.11;;;24.20;27.27
34197;BME280;36594;45.192;5.722;2023-04-21T13:11:49;98387.78;;;24.20;27.00
34197;BME280;36594;45.192;5.722;2023-04-21T13:14:38;98391.67;;;24.29;26.90
34197;BME280;36594;45.192;5.722;2023-04-21T13:17:26;98391.92;;;24.25;26.74
34197;BME280;36594;45.192;5.722;2023-04-21T13:20:14;98383.44;;;24.29;26.62
34197;BME280;36594;45.192;5.722;2023-04-21T13:23:04;98387.56;;;24.32;26.57
34197;BME280;36594;45.192;5.722;2023-04-21T13:25:53;98391.95;;;24.35;26.52
34197;BME280;36594;45.192;5.722;2023-04-21T13:28:42;98387.00;;;24.37;26.34
34197;BME280;36594;45.192;5.722;2023-04-21T13:31:31;98388.66;;;24.36;26.32
34197;BME280;36594;45.192;5.722;2023-04-21T13:34:19;98380.68;;;24.37;26.29
34197;BME280;36594;45.192;5.722;2023-04-21T13:37:08;98363.91;;;24.18;26.15
34197;BME280;36594;45.192;5.722;2023-04-21T13:39:57;98379.88;;;24.36;25.99
34197;BME280;36594;45.192;5.722;2023-04-21T13:42:46;98365.88;;;24.38;26.16
34197;BME280;36594;45.192;5.722;2023-04-21T13:45:34;98370.00;;;24.40;26.25
34197;BME280;36594;45.192;5.722;2023-04-21T13:48:22;98362.86;;;24.47;26.29
34197;BME280;36594;45.192;5.722;2023-04-21T13:51:10;98373.83;;;24.44;26.07
34197;BME280;36594;45.192;5.722;2023-04-21T13:53:59;98360.39;;;24.45;25.95
34197;BME280;36594;45.192;5.722;2023-04-21T13:56:47;98356.83;;;24.47;26.03
34197;BME280;36594;45.192;5.722;2023-04-21T13:59:37;98356.53;;;24.46;25.95
34197;BME280;36594;45.192;5.722;2023-04-21T14:02:25;98353.53;;;24.43;25.96
34197;BME280;36594;45.192;5.722;2023-04-21T14:05:14;98352.16;;;24.40;25.83
34197;BME280;36594;45.192;5.722;2023-04-21T14:08:02;98357.91;;;24.41;25.89
34197;BME280;36594;45.192;5.722;2023-04-21T14:10:50;98352.41;;;24.41;25.73
34197;BME280;36594;45.192;5.722;2023-04-21T14:13:39;98349.13;;;24.49;25.79
34197;BME280;36594;45.192;5.722;2023-04-21T14:16:27;98345.30;;;24.48;25.87
34197;BME280;36594;45.192;5.722;2023-04-21T14:19:16;98346.92;;;24.46;25.75
34197;BME280;36594;45.192;5.722;2023-04-21T14:22:04;98347.22;;;24.50;25.73
34197;BME280;36594;45.192;5.722;2023-04-21T14:24:53;98348.02;;;24.58;25.71
34197;BME280;36594;45.192;5.722;2023-04-21T14:27:42;98346.39;;;24.59;25.70
34197;BME280;36594;45.192;5.722;2023-04-21T14:30:30;98348.85;;;24.53;25.62
34197;BME280;36594;45.192;5.722;2023-04-21T14:33:18;98356.81;;;24.42;25.54
34197;BME280;36594;45.192;5.722;2023-04-21T14:36:07;98344.75;;;24.43;25.49
34197;BME280;36594;45.192;5.722;2023-04-21T14:38:56;98342.56;;;24.50;25.55
34197;BME280;36594;45.192;5.722;2023-04-21T14:41:44;98342.28;;;24.57;25.50
34197;BME280;36594;45.192;5.722;2023-04-21T14:44:33;98334.84;;;24.62;25.29
34197;BME280;36594;45.192;5.722;2023-04-21T14:47:21;98335.38;;;24.64;25.31
34197;BME280;36594;45.192;5.722;2023-04-21T14:50:10;98333.75;;;24.58;25.33
34197;BME280;36594;45.192;5.722;2023-04-21T14:52:58;98330.47;;;24.59;25.37
34197;BME280;36594;45.192;5.722;2023-04-21T14:55:46;98341.70;;;24.70;25.60